Current Conditions
Mostly Cloudy
Conditions




Pressure
1013.92 (hPa) - 29.94 (inHG)
Visibility

10.0 (km) - 6.2 (miles)
   Temperature
12  °C
54°F
11  °C
Dewpoint
94  %
 Humidity
   Wind Speed
8  km/h
4  kts
5  mph
2.2  m/s
   Wind Direction
 170°
Due South
   Airport Data
YMLT
Location Launceston 136 km (84.52 mi)
Metar :YMLT 282030Z AUTO 17004KT 9999 // BKN061 BKN110 12/11 Q1014
Sun 29th March 06:30 am
   Raw Metar Info
Raw METAR is the most common format in the world for the transmission of observational weather data. It is highly standardized through the International Civil Aviation Organization (ICAO), which allows it to be understood throughout most of the world.
   API Info
Data Provided by
https://www.checkwx.com/weather/YMLT
   © Info
CSS/SVG/PHP scripts were developed by weather34.com for use in the weather34 template © 2015-2020

Guide Info provided by Metar-Wikipedia